createdAt,value
2019-06-26T00:03:21.428Z,99.9
2019-06-26T00:08:26.550Z,99.9
2019-06-26T00:13:31.595Z,99.9
2019-06-26T00:18:37.092Z,99.9
2019-06-26T00:23:41.842Z,99.9
2019-06-26T00:28:46.744Z,99.9
2019-06-26T00:33:51.585Z,99.9
2019-06-26T00:38:59.416Z,99.9
2019-06-26T00:44:04.179Z,99.9
2019-06-26T00:49:07.661Z,99.9
2019-06-26T00:54:12.652Z,99.9
2019-06-26T00:59:18.003Z,99.9
2019-06-26T01:04:23.253Z,99.9
2019-06-26T01:09:28.421Z,99.9
2019-06-26T01:14:33.308Z,99.9
2019-06-26T01:19:38.232Z,99.9
2019-06-26T01:24:43.120Z,99.9
2019-06-26T01:29:48.101Z,99.9
2019-06-26T01:34:53.087Z,99.9
2019-06-26T01:39:58.131Z,99.9
2019-06-26T01:45:02.931Z,99.9
2019-06-26T01:50:08.224Z,99.9
2019-06-26T01:55:13.294Z,99.9
2019-06-26T02:00:18.340Z,99.9
2019-06-26T02:05:23.221Z,99.9
2019-06-26T02:15:33.508Z,99.9
2019-06-26T02:20:38.571Z,99.9
2019-06-26T02:25:43.315Z,99.9
2019-06-26T02:30:48.370Z,99.9
2019-06-26T02:37:05.098Z,99.9
2019-06-26T02:42:10.060Z,99.9
2019-06-26T02:47:22.784Z,99.9
2019-06-26T02:52:18.016Z,99.9
2019-06-26T02:57:22.808Z,99.9
2019-06-26T03:02:27.702Z,99.9
2019-06-26T03:07:32.585Z,99.9
2019-06-26T03:12:37.539Z,99.9
2019-06-26T03:17:57.779Z,99.9
2019-06-26T03:22:43.160Z,99.9
2019-06-26T03:27:48.064Z,99.9
2019-06-26T03:32:52.934Z,99.9
2019-06-26T03:37:58.181Z,99.9
2019-06-26T03:43:03.243Z,99.9
2019-06-26T03:48:08.408Z,99.9
2019-06-26T03:53:13.416Z,99.9
2019-06-26T03:58:18.494Z,99.9
2019-06-26T04:03:23.482Z,99.9
2019-06-26T04:08:28.396Z,99.9
2019-06-26T04:13:33.673Z,99.9
2019-06-26T04:18:40.101Z,99.9
2019-06-26T04:23:45.496Z,99.9
2019-06-26T04:28:50.885Z,99.9
2019-06-26T04:33:56.040Z,99.9
2019-06-26T04:39:01.457Z,99.9
2019-06-26T04:44:07.055Z,99.9
2019-06-26T04:49:11.960Z,99.9
2019-06-26T04:54:17.698Z,99.9
2019-06-26T04:59:22.464Z,99.9
2019-06-26T05:04:26.046Z,99.9
2019-06-26T05:09:31.048Z,99.9
2019-06-26T05:14:36.110Z,99.9
2019-06-26T05:19:40.280Z,99.9
2019-06-26T05:24:49.366Z,99.9
2019-06-26T05:29:57.005Z,99.9
2019-06-26T05:35:01.982Z,99.9
2019-06-26T05:40:07.007Z,99.9
2019-06-26T05:45:12.644Z,99.9
2019-06-26T05:50:17.828Z,99.9
2019-06-26T05:55:22.727Z,99.9
2019-06-26T06:05:31.632Z,99.9
2019-06-26T06:10:36.371Z,99.9
2019-06-26T06:15:41.514Z,99.9
2019-06-26T06:20:46.581Z,99.9
2019-06-26T06:25:51.467Z,99.9
2019-06-26T06:30:56.217Z,99.9
2019-06-26T06:36:01.186Z,99.9
2019-06-26T06:41:06.225Z,99.9
2019-06-26T06:46:11.467Z,99.9
2019-06-26T06:51:16.261Z,99.9
2019-06-26T06:56:21.292Z,99.9
2019-06-26T07:01:26.198Z,99.9
2019-06-26T07:06:31.640Z,99.9
2019-06-26T07:11:37.030Z,99.9
2019-06-26T07:16:42.112Z,99.9
2019-06-26T07:21:46.915Z,99.9
2019-06-26T07:26:51.766Z,99.9
2019-06-26T07:31:56.529Z,99.9
2019-06-26T07:37:01.738Z,98.9
2019-06-26T07:42:07.034Z,99.8
2019-06-26T07:47:45.178Z,99.2
2019-06-26T07:52:20.211Z,99.4
2019-06-26T07:57:25.256Z,98.2
2019-06-26T08:02:30.948Z,96.7
2019-06-26T08:07:34.785Z,96.8
2019-06-26T08:12:39.666Z,96.3
2019-06-26T08:18:03.354Z,95.9
2019-06-26T08:22:48.404Z,95.2
2019-06-26T08:27:53.447Z,93.2
2019-06-26T08:32:58.474Z,93.8
2019-06-26T08:38:17.317Z,92.8
2019-06-26T08:43:12.300Z,92.6
2019-06-26T08:48:42.186Z,92.1
2019-06-26T08:53:17.339Z,92
2019-06-26T08:58:22.341Z,87.9
2019-06-26T09:03:27.074Z,89.5
2019-06-26T09:08:31.737Z,87.4
2019-06-26T09:13:37.726Z,86.9
2019-06-26T09:18:41.554Z,86.7
2019-06-26T09:23:46.825Z,86.6
2019-06-26T09:28:50.378Z,86.6
2019-06-26T09:33:55.177Z,84.6
2019-06-26T09:39:00.616Z,78.7
2019-06-26T09:44:05.830Z,74.7
2019-06-26T09:49:10.783Z,74.6
2019-06-26T09:54:15.687Z,75.4
2019-06-26T09:59:20.642Z,71.9
2019-06-26T10:04:25.692Z,68.9
2019-06-26T10:09:33.620Z,69.1
2019-06-26T10:14:50.162Z,70.7
2019-06-26T10:19:45.116Z,70.6
2019-06-26T10:24:50.093Z,69.6
2019-06-26T10:29:54.936Z,71.9
2019-06-26T10:34:59.973Z,74.7
2019-06-26T10:40:04.889Z,75.7
2019-06-26T10:45:10.446Z,73.8
2019-06-26T10:50:15.314Z,73.8
2019-06-26T10:55:20.338Z,77.6
2019-06-26T11:00:25.147Z,75.4
2019-06-26T11:05:29.979Z,75
2019-06-26T11:10:34.903Z,73.7
2019-06-26T11:15:39.978Z,72.4
2019-06-26T11:20:46.075Z,68.2
2019-06-26T11:25:51.070Z,70
2019-06-26T11:30:56.305Z,67.6
2019-06-26T11:36:01.246Z,69
2019-06-26T11:41:06.315Z,70.5
2019-06-26T11:46:11.402Z,72.4
2019-06-26T11:51:16.312Z,73.7
2019-06-26T12:01:25.219Z,69.2
2019-06-26T12:06:33.543Z,73
2019-06-26T12:11:38.533Z,72.1
2019-06-26T12:16:43.433Z,70.8
2019-06-26T12:21:51.213Z,65.7
2019-06-26T12:26:55.937Z,65.7
2019-06-26T12:32:01.311Z,69.3
2019-06-26T12:37:06.214Z,68.6
2019-06-26T12:42:11.169Z,66.4
2019-06-26T12:47:15.941Z,66.7
2019-06-26T12:52:20.924Z,66.3
2019-06-26T12:57:24.578Z,66.4
2019-06-26T13:02:29.612Z,66
2019-06-26T13:07:34.380Z,68.3
2019-06-26T13:12:39.905Z,68.6
2019-06-26T13:17:43.463Z,68.6
2019-06-26T13:22:48.539Z,68.8
2019-06-26T13:27:53.518Z,69.7
2019-06-26T13:32:58.569Z,71.2
2019-06-26T13:38:03.622Z,76.1
2019-06-26T13:43:12.422Z,76.4
2019-06-26T13:48:17.732Z,76.2
2019-06-26T13:53:21.877Z,77
2019-06-26T13:58:26.633Z,77
2019-06-26T14:03:31.519Z,74.4
2019-06-26T14:08:36.590Z,75.5
2019-06-26T14:13:44.431Z,72.5
2019-06-26T14:18:49.401Z,72.5
2019-06-26T14:23:52.943Z,75.5
2019-06-26T14:28:56.831Z,72.5
2019-06-26T14:34:01.864Z,72.4
2019-06-26T14:39:06.892Z,74
2019-06-26T14:44:11.989Z,75.9
2019-06-26T14:49:15.585Z,75.4
2019-06-26T14:54:20.454Z,75.7
2019-06-26T14:59:25.750Z,75.2
2019-06-26T15:04:29.776Z,75.8
2019-06-26T15:09:34.710Z,75.7
2019-06-26T15:14:42.138Z,75
2019-06-26T15:19:47.266Z,74.9
2019-06-26T15:24:52.956Z,75.6
2019-06-26T15:29:57.752Z,75.5
2019-06-26T15:35:03.487Z,76.3
2019-06-26T15:40:08.382Z,76.2
2019-06-26T15:45:13.399Z,76.9
2019-06-26T15:50:18.745Z,78.6
2019-06-26T15:55:23.740Z,78.5
2019-06-26T16:00:28.594Z,78.8
2019-06-26T16:05:33.558Z,79.5
2019-06-26T16:10:38.652Z,78.8
2019-06-26T16:15:43.586Z,80.3
2019-06-26T16:20:48.775Z,78.9
2019-06-26T16:25:53.992Z,79.6
2019-06-26T16:30:58.909Z,82.4
2019-06-26T16:36:03.949Z,82.3
2019-06-26T16:41:08.979Z,83.8
2019-06-26T16:46:14.039Z,83.4
2019-06-26T16:51:18.958Z,85.2
2019-06-26T16:56:23.850Z,85.2
2019-06-26T17:01:28.722Z,86.2
2019-06-26T17:06:33.643Z,86.3
2019-06-26T17:11:37.108Z,86.4
2019-06-26T17:16:42.378Z,86.3
2019-06-26T17:21:49.740Z,86.7
2019-06-26T17:26:55.322Z,88.4
2019-06-26T17:31:58.734Z,88.6
2019-06-26T17:37:04.277Z,89.9
2019-06-26T17:42:07.715Z,90.2
2019-06-26T17:47:12.623Z,90.6
2019-06-26T17:52:18.210Z,91.6
2019-06-26T17:57:23.454Z,91.6
2019-06-26T18:02:28.507Z,92.5
2019-06-26T18:07:33.999Z,93.7
2019-06-26T18:12:37.530Z,93.7
2019-06-26T18:17:42.744Z,94.5
2019-06-26T18:22:47.677Z,95.4
2019-06-26T18:27:52.770Z,96.5
2019-06-26T18:32:57.653Z,97.5
2019-06-26T18:38:04.475Z,98.1
2019-06-26T18:43:10.793Z,98.8
2019-06-26T18:48:15.978Z,99.9
2019-06-26T18:53:21.193Z,99.9
2019-06-26T18:58:26.869Z,99.9
2019-06-26T19:03:35.629Z,99.9
2019-06-26T19:08:41.527Z,99.9
2019-06-26T19:13:47.490Z,99.9
2019-06-26T19:18:53.508Z,99.9
2019-06-26T19:24:13.148Z,99.9
2019-06-26T19:28:59.132Z,99.9
2019-06-26T19:34:05.647Z,99.9
2019-06-26T19:39:11.553Z,99.9
2019-06-26T19:44:17.382Z,99.9
2019-06-26T19:49:25.369Z,99.9
2019-06-26T19:54:35.379Z,99.9
2019-06-26T19:59:31.464Z,99.9
2019-06-26T20:04:38.331Z,99.9
2019-06-26T20:09:45.562Z,99.9
2019-06-26T20:14:56.089Z,99.9
2019-06-26T20:19:53.263Z,99.9
2019-06-26T20:25:01.074Z,99.9
2019-06-26T20:30:11.946Z,99.9
2019-06-26T20:35:18.140Z,99.9
2019-06-26T20:40:24.601Z,99.9
2019-06-26T20:45:28.693Z,99.9
2019-06-26T20:50:34.239Z,99.9
2019-06-26T20:55:39.550Z,99.9
2019-06-26T21:00:45.242Z,99.9
2019-06-26T21:05:50.149Z,99.9
2019-06-26T21:10:56.150Z,99.9
2019-06-26T21:16:01.621Z,99.9
2019-06-26T21:21:06.966Z,99.9
2019-06-26T21:26:12.019Z,99.9
2019-06-26T21:31:17.384Z,99.9
2019-06-26T21:36:22.729Z,99.9
2019-06-26T21:41:28.017Z,99.9
2019-06-26T21:46:33.966Z,99.9
2019-06-26T21:51:38.901Z,99.9
2019-06-26T21:56:44.188Z,99.9
2019-06-26T22:01:49.285Z,99.9
2019-06-26T22:06:54.465Z,99.9
2019-06-26T22:12:03.423Z,99.9
2019-06-26T22:17:08.441Z,99.9
2019-06-26T22:22:13.774Z,99.9
2019-06-26T22:27:19.022Z,99.9
2019-06-26T22:32:24.490Z,99.9
2019-06-26T22:37:29.838Z,99.9
2019-06-26T22:42:35.819Z,99.9
2019-06-26T22:47:41.172Z,99.9
2019-06-26T22:52:47.022Z,99.9
2019-06-26T22:57:52.116Z,99.9
2019-06-26T23:02:57.131Z,99.9
2019-06-26T23:08:02.787Z,99.9
2019-06-26T23:13:12.294Z,99.9
2019-06-26T23:18:17.314Z,99.9
2019-06-26T23:23:22.835Z,99.9
2019-06-26T23:28:28.342Z,99.9
2019-06-26T23:33:33.732Z,99.9
2019-06-26T23:38:38.784Z,99.9
2019-06-26T23:43:43.766Z,99.9
2019-06-26T23:48:48.596Z,99.9
2019-06-26T23:53:54.253Z,99.9
2019-06-26T23:58:59.514Z,99.9
